Accueil
METAR-TAF:

METAR-TAF

Aéroports :

Locarno, Suisse

latitude: 46-09-55N, longitude: 8-52-40E, altitude: 198 m

Observation

Le bulletin a été fait il y a 46 minutes, à 01:50 UTC
Vent calme
Température 9°C
Humidité 87%
Pression 1012 hPa
Visibilité 10 km ou plus
Nuages fragmentés à une hauteur de 8300 ft
faibles averses de pluie

METAR: LSZL 010150Z AUTO 00000KT 9999NDV -SHRA BKN083 09/07 Q1012 RMK

Heure: 04:36 (02:36 UTC)


TAF: absent

Observations et prévisions météorologiques de plus de 4000 aéroports (messages METAR et TAF).

Les stations disponibles sont représentées par des disques jaunes et rouges sur la carte.

Passer la souris dessus pour voir le nom de la station.

Cliquer dessus pour voir les observations et prévisions météorologiques.

Pour changer de carte: cliquez sur les boutons verts avec une croix noire pour zoomer, sur le bouton vert avec un tiret pour effectuer un zoom arrière, ou sur les flèches vertes pour les cartes adjacentes.


METAR-TAF: